createdAt,value
2022-12-14T00:01:23.082Z,-2.60
2022-12-14T00:04:23.522Z,-2.60
2022-12-14T00:07:19.920Z,-2.60
2022-12-14T00:10:09.805Z,-2.50
2022-12-14T00:13:08.923Z,-2.50
2022-12-14T00:16:00.252Z,-2.60
2022-12-14T00:18:56.004Z,-2.70
2022-12-14T00:21:46.130Z,-2.70
2022-12-14T00:25:15.403Z,-2.60
2022-12-14T00:28:08.255Z,-2.60
2022-12-14T00:31:53.076Z,-2.50
2022-12-14T00:34:13.071Z,-2.50
2022-12-14T00:37:13.013Z,-2.40
2022-12-14T00:40:19.583Z,-2.50
2022-12-14T00:43:17.903Z,-2.50
2022-12-14T00:46:07.235Z,-2.50
2022-12-14T00:49:10.355Z,-2.50
2022-12-14T00:52:05.255Z,-2.50
2022-12-14T00:55:04.335Z,-2.50
2022-12-14T00:58:08.580Z,-2.40
2022-12-14T01:01:07.108Z,-2.40
2022-12-14T01:04:24.489Z,-2.40
2022-12-14T01:07:20.478Z,-2.40
2022-12-14T01:10:17.794Z,-2.40
2022-12-14T01:13:13.870Z,-2.40
2022-12-14T01:16:20.276Z,-2.30
2022-12-14T01:19:40.860Z,-2.30
2022-12-14T01:22:29.099Z,-2.20
2022-12-14T01:25:29.809Z,-2.10
2022-12-14T01:28:20.508Z,-2.30
2022-12-14T01:31:24.775Z,-2.30
2022-12-14T01:34:13.060Z,-2.30
2022-12-14T01:37:08.116Z,-2.30
2022-12-14T01:40:03.897Z,-2.20
2022-12-14T01:42:56.617Z,-2.20
2022-12-14T01:45:47.397Z,-2.30
2022-12-14T01:48:36.670Z,-2.30
2022-12-14T01:51:38.824Z,-2.30
2022-12-14T01:54:34.130Z,-2.40
2022-12-14T01:57:34.971Z,-2.40
2022-12-14T02:00:31.715Z,-2.40
2022-12-14T02:03:42.494Z,-2.30
2022-12-14T02:06:36.751Z,-2.40
2022-12-14T02:09:34.433Z,-2.40
2022-12-14T02:12:40.942Z,-2.40
2022-12-14T02:15:38.066Z,-2.40
2022-12-14T02:18:40.690Z,-2.50
2022-12-14T02:22:12.148Z,-2.50
2022-12-14T02:26:03.632Z,-2.50
2022-12-14T02:29:48.806Z,-2.50
2022-12-14T02:33:06.103Z,-2.60
2022-12-14T02:36:45.161Z,-2.60
2022-12-14T02:40:12.194Z,-2.50
2022-12-14T02:43:47.531Z,-2.50
2022-12-14T02:47:17.644Z,-2.50
2022-12-14T02:50:27.159Z,-2.50
2022-12-14T02:53:49.480Z,-2.30
2022-12-14T02:59:56.906Z,-2.20
2022-12-14T03:02:48.496Z,-2.30
2022-12-14T03:05:36.813Z,-2.30
2022-12-14T03:08:29.782Z,-2.30
2022-12-14T03:11:32.208Z,-2.30
2022-12-14T03:14:46.414Z,-2.30
2022-12-14T03:17:34.915Z,-2.30
2022-12-14T03:20:28.983Z,-2.20
2022-12-14T03:23:30.587Z,-2.20
2022-12-14T03:26:47.716Z,-2.20
2022-12-14T03:30:06.658Z,-2.10
2022-12-14T03:33:01.416Z,-2.00
2022-12-14T03:36:11.509Z,-1.90
2022-12-14T03:39:05.474Z,-2.00
2022-12-14T03:42:20.303Z,-1.90
2022-12-14T03:45:22.769Z,-1.90
2022-12-14T03:48:58.314Z,-1.80
2022-12-14T03:52:07.293Z,-1.80
2022-12-14T03:55:23.162Z,-1.90
2022-12-14T03:58:29.201Z,-1.80
2022-12-14T04:01:52.765Z,-1.80
2022-12-14T04:05:30.990Z,-1.70
2022-12-14T04:08:52.768Z,-1.60
2022-12-14T04:12:24.717Z,-1.70
2022-12-14T04:15:39.370Z,-1.60
2022-12-14T04:18:59.541Z,-1.60
2022-12-14T04:22:05.053Z,-1.70
2022-12-14T04:26:00.593Z,-1.60
2022-12-14T04:29:28.399Z,-1.50
2022-12-14T04:32:27.497Z,-1.60
2022-12-14T04:35:33.096Z,-1.60
2022-12-14T04:38:34.257Z,-1.60
2022-12-14T04:41:39.503Z,-1.60
2022-12-14T04:45:19.444Z,-1.60
2022-12-14T04:48:25.463Z,-1.40
2022-12-14T04:51:34.239Z,-1.40
2022-12-14T04:54:52.917Z,-1.30
2022-12-14T04:57:47.199Z,-1.40
2022-12-14T05:01:11.883Z,-1.30
2022-12-14T05:04:27.573Z,-1.40
2022-12-14T05:07:58.470Z,-1.40
2022-12-14T05:11:30.470Z,-1.40
2022-12-14T05:15:07.872Z,-1.30
2022-12-14T05:18:19.792Z,-1.30
2022-12-14T05:21:52.385Z,-1.30
2022-12-14T05:28:30.761Z,-1.30
2022-12-14T05:35:07.566Z,-1.10
2022-12-14T05:38:04.511Z,-1.00
2022-12-14T05:41:02.237Z,-0.90
2022-12-14T05:44:03.058Z,-1.00
2022-12-14T05:46:52.512Z,-1.00
2022-12-14T05:49:41.695Z,-1.00
2022-12-14T05:52:39.593Z,-0.90
2022-12-14T05:55:55.415Z,-0.90
2022-12-14T06:02:06.193Z,-1.30
2022-12-14T06:05:11.221Z,-1.50
2022-12-14T06:08:07.125Z,-1.50
2022-12-14T06:11:14.008Z,-1.50
2022-12-14T06:14:40.361Z,-1.40
2022-12-14T06:21:47.068Z,-1.10
2022-12-14T06:24:35.562Z,-1.00
2022-12-14T06:27:27.007Z,-1.00
2022-12-14T06:30:16.288Z,-1.30
2022-12-14T06:33:08.843Z,-1.10
2022-12-14T06:36:26.680Z,-1.10
2022-12-14T06:39:17.416Z,-1.20
2022-12-14T06:45:05.846Z,-1.30
2022-12-14T06:47:57.536Z,-1.40
2022-12-14T06:50:50.360Z,-1.40
2022-12-14T06:53:38.939Z,-1.40
2022-12-14T06:56:28.557Z,-1.30
2022-12-14T06:59:18.051Z,-1.30
2022-12-14T07:02:15.068Z,-1.40
2022-12-14T07:05:11.122Z,-1.30
2022-12-14T07:08:24.451Z,-1.30
2022-12-14T07:11:15.302Z,-1.30
2022-12-14T07:14:06.517Z,-1.20
2022-12-14T07:16:58.200Z,-1.10
2022-12-14T07:19:51.415Z,-1.00
2022-12-14T07:22:41.241Z,-1.10
2022-12-14T07:25:35.881Z,-1.10
2022-12-14T07:28:37.178Z,-1.30
2022-12-14T07:31:52.397Z,-1.30
2022-12-14T07:34:57.534Z,-1.00
2022-12-14T07:41:45.435Z,-1.00
2022-12-14T07:45:35.735Z,-0.90
2022-12-14T07:49:22.027Z,-0.90
2022-12-14T07:52:42.780Z,-0.70
2022-12-14T07:58:46.916Z,-0.50
2022-12-14T08:01:42.390Z,-0.80
2022-12-14T08:04:32.430Z,-0.70
2022-12-14T08:07:32.363Z,-0.60
2022-12-14T08:10:23.350Z,-0.40
2022-12-14T08:13:11.725Z,-0.30
2022-12-14T08:16:11.675Z,-0.20
2022-12-14T08:19:01.587Z,-0.10
2022-12-14T08:21:52.019Z,0.00
2022-12-14T08:25:08.141Z,-0.10
2022-12-14T08:28:06.174Z,-0.10
2022-12-14T08:30:57.241Z,-0.20
2022-12-14T08:33:49.500Z,-0.30
2022-12-14T08:36:49.008Z,-0.20
2022-12-14T08:39:47.767Z,0.00
2022-12-14T08:42:38.224Z,-0.20
2022-12-14T08:45:33.267Z,0.00
2022-12-14T08:48:21.841Z,0.00
2022-12-14T08:51:14.719Z,-0.10
2022-12-14T08:54:07.144Z,-0.30
2022-12-14T08:57:08.011Z,-0.30
2022-12-14T09:00:01.609Z,-0.20
2022-12-14T09:02:55.331Z,-0.40
2022-12-14T09:06:15.843Z,-0.40
2022-12-14T09:09:15.998Z,-0.30
2022-12-14T09:12:10.267Z,-0.60
2022-12-14T09:53:05.252Z,-0.50
2022-12-14T09:56:15.779Z,-0.30
2022-12-14T09:59:25.017Z,-0.50
2022-12-14T10:03:07.128Z,-0.90
2022-12-14T10:06:30.186Z,-0.90
2022-12-14T10:10:01.511Z,-0.70
2022-12-14T10:13:39.132Z,-0.50
2022-12-14T10:17:10.225Z,-0.20
2022-12-14T10:20:16.186Z,-0.50
2022-12-14T10:23:05.829Z,-0.80
2022-12-14T10:26:09.519Z,-0.90
2022-12-14T10:29:23.892Z,-1.00
2022-12-14T10:32:39.832Z,-1.00
2022-12-14T10:35:52.699Z,-1.00
2022-12-14T10:39:09.866Z,-0.80
2022-12-14T10:42:41.815Z,-0.90
2022-12-14T10:45:47.320Z,-0.80
2022-12-14T10:48:56.628Z,-1.00
2022-12-14T10:52:21.358Z,-1.10
2022-12-14T10:55:42.114Z,-1.00
2022-12-14T10:58:31.168Z,-0.70
2022-12-14T11:01:26.879Z,-0.50
2022-12-14T11:04:43.772Z,-0.10
2022-12-14T11:07:37.491Z,0.00
2022-12-14T11:10:37.649Z,-0.50
2022-12-14T11:13:29.651Z,-0.60
2022-12-14T11:16:38.893Z,-0.40
2022-12-14T11:19:30.495Z,-0.40
2022-12-14T11:22:36.103Z,-0.40
2022-12-14T11:25:42.280Z,-0.60
2022-12-14T11:29:05.951Z,-0.40
2022-12-14T11:32:02.913Z,-0.30
2022-12-14T11:34:59.755Z,-0.50
2022-12-14T11:37:59.286Z,-0.50
2022-12-14T11:40:50.336Z,-0.80
2022-12-14T11:43:42.984Z,-0.60
2022-12-14T11:46:57.429Z,-0.50
2022-12-14T11:49:54.411Z,-0.20
2022-12-14T11:53:18.024Z,-0.20
2022-12-14T11:56:27.736Z,-0.10
2022-12-14T11:59:27.175Z,0.10
2022-12-14T12:02:32.733Z,0.30
2022-12-14T12:05:39.812Z,0.10
2022-12-14T12:08:51.811Z,0.20
2022-12-14T14:47:58.289Z,0.40
2022-12-14T14:50:49.247Z,0.30
2022-12-14T14:53:40.979Z,0.10
2022-12-14T14:56:46.135Z,0.00
2022-12-14T14:59:50.967Z,0.00
2022-12-14T15:03:41.530Z,-0.10
2022-12-14T15:06:44.469Z,-0.20
2022-12-14T15:10:33.946Z,-0.40
2022-12-14T15:13:35.432Z,-0.50
2022-12-14T15:16:59.572Z,-0.70
2022-12-14T15:23:11.803Z,-0.70
2022-12-14T15:26:05.389Z,-1.00
2022-12-14T15:29:19.464Z,-1.10
2022-12-14T15:32:51.481Z,-1.20
2022-12-14T17:45:15.281Z,-3.40
2022-12-14T18:32:04.631Z,-2.80
2022-12-14T18:35:29.497Z,-3.10
2022-12-14T18:38:29.971Z,-3.30
2022-12-14T18:42:16.632Z,-3.00
2022-12-14T18:46:09.665Z,-3.10
2022-12-14T18:49:46.409Z,-2.90
2022-12-14T18:52:48.700Z,-3.00
2022-12-14T18:55:56.796Z,-3.00
2022-12-14T18:59:24.425Z,-2.80
2022-12-14T19:02:26.501Z,-2.90
2022-12-14T19:05:43.719Z,-2.90
2022-12-14T20:10:38.982Z,-3.50
2022-12-14T20:18:21.759Z,-3.80
2022-12-14T20:32:50.339Z,-3.60
2022-12-14T20:48:29.031Z,-3.80
2022-12-14T20:59:09.820Z,-4.30
2022-12-14T21:36:18.023Z,-4.00
2022-12-14T21:44:07.757Z,-4.00
2022-12-14T21:47:49.552Z,-4.10
2022-12-14T21:54:08.375Z,-4.50
2022-12-14T21:57:22.996Z,-4.50
2022-12-14T22:11:37.638Z,-4.30
2022-12-14T22:18:48.437Z,-4.30
2022-12-14T22:25:08.877Z,-4.40
2022-12-14T22:39:21.048Z,-4.10
2022-12-14T22:47:57.097Z,-4.10
2022-12-14T22:51:35.299Z,-4.00
2022-12-14T22:58:01.348Z,-4.10
2022-12-14T23:00:59.063Z,-4.10
2022-12-14T23:04:06.741Z,-4.30
2022-12-14T23:07:13.297Z,-4.40
2022-12-14T23:10:39.451Z,-4.70
2022-12-14T23:14:08.033Z,-4.60
2022-12-14T23:24:40.950Z,-4.40
2022-12-14T23:36:25.693Z,-4.30
2022-12-14T23:39:44.257Z,-4.40
2022-12-14T23:43:50.112Z,-4.30
2022-12-14T23:51:06.745Z,-4.10
2022-12-14T23:54:20.583Z,-4.10
2022-12-14T23:57:31.518Z,-4.20
